Time;durP1;ratioP1;P1;durP2;ratioP2;P2;SDS_P1;SDS_P2;PMS_P1;PMS_P2;Temp;Humidity;BMP_temperature;BMP_pressure;BME280_temperature;BME280_humidity;BME280_pressure;Samples;Min_cycle;Max_cycle;Signal;HPM_P1;HPM_P2
2022/05/23 00:01:51;;;;;;;6.70;3.00;;;16.30;99.90;;;;;;5011037;28;20023;-78
2022/05/23 00:04:17;;;;;;;4.88;2.40;;;16.30;99.90;;;;;;5013817;28;20021;-78
2022/05/23 00:06:45;;;;;;;5.05;2.33;;;16.20;99.90;;;;;;5011850;28;20022;-79
2022/05/23 00:09:11;;;;;;;4.15;2.38;;;16.20;99.80;;;;;;5014412;28;20041;-80
2022/05/23 00:11:38;;;;;;;7.85;3.08;;;16.10;99.80;;;;;;5013403;28;20033;-81
2022/05/23 00:14:04;;;;;;;8.25;2.40;;;16.20;99.90;;;;;;5009038;28;20076;-81
2022/05/23 00:16:35;;;;;;;4.75;2.30;;;16.10;99.90;;;;;;5009035;28;20408;-81
2022/05/23 00:19:02;;;;;;;3.00;2.00;;;16.10;99.90;;;;;;5005524;28;20030;-80
2022/05/23 00:21:27;;;;;;;5.32;2.13;;;16.00;99.90;;;;;;5005423;28;20077;-80
2022/05/23 00:23:53;;;;;;;5.40;2.70;;;16.00;99.90;;;;;;5009076;28;20060;-80
2022/05/23 00:26:21;;;;;;;5.93;2.33;;;16.00;99.90;;;;;;5011569;28;20030;-79
2022/05/23 00:28:48;;;;;;;7.05;2.30;;;15.90;99.90;;;;;;5011176;28;20045;-80
2022/05/23 00:31:15;;;;;;;5.57;2.60;;;15.80;99.90;;;;;;5007817;28;20050;-80
2022/05/23 00:36:31;;;;;;;7.68;2.60;;;15.70;99.90;;;;;;5010780;28;20034;-80
2022/05/23 00:38:57;;;;;;;6.80;2.35;;;15.60;99.90;;;;;;5010864;28;20034;-79
2022/05/23 00:44:24;;;;;;;9.27;2.80;;;15.50;99.90;;;;;;5001989;28;20097;-79
2022/05/23 00:47:03;;;;;;;9.65;2.53;;;15.50;99.90;;;;;;4976779;28;20053;-79
2022/05/23 00:49:36;;;;;;;6.55;2.88;;;15.40;99.90;;;;;;5009076;28;20375;-79
2022/05/23 00:52:06;;;;;;;11.55;2.33;;;15.40;99.90;;;;;;5007861;28;20037;-81
2022/05/23 00:54:46;;;;;;;10.10;2.90;;;15.40;99.90;;;;;;5006035;28;20030;-79
2022/05/23 00:57:16;;;;;;;3.63;2.38;;;15.40;99.90;;;;;;4999884;28;20372;-80
2022/05/23 00:59:42;;;;;;;6.80;2.50;;;15.40;99.90;;;;;;5010714;28;20030;-79
2022/05/23 01:02:11;;;;;;;5.65;2.28;;;15.40;99.90;;;;;;5008347;28;20049;-79
2022/05/23 01:04:40;;;;;;;5.55;2.72;;;15.50;99.90;;;;;;5005351;28;20042;-80
2022/05/23 01:07:07;;;;;;;5.32;2.25;;;15.50;99.90;;;;;;5002377;28;20048;-79
2022/05/23 01:09:33;;;;;;;5.63;2.42;;;15.50;99.90;;;;;;4978857;28;20051;-80
2022/05/23 01:12:00;;;;;;;8.27;2.63;;;15.50;99.90;;;;;;4985717;28;20025;-80
2022/05/23 01:14:51;;;;;;;4.47;2.20;;;15.50;99.90;;;;;;4983860;28;20041;-81
2022/05/23 01:17:19;;;;;;;5.13;2.60;;;15.50;99.90;;;;;;5001371;28;20041;-80
2022/05/23 01:19:44;;;;;;;7.47;2.65;;;15.50;99.90;;;;;;5004233;28;20373;-79
2022/05/23 01:22:25;;;;;;;6.13;2.50;;;15.50;99.90;;;;;;4981907;28;20123;-81
2022/05/23 01:25:08;;;;;;;5.43;2.55;;;15.50;99.90;;;;;;5002415;28;20393;-78
2022/05/23 01:27:37;;;;;;;11.77;2.38;;;15.60;99.90;;;;;;5003277;28;20046;-80
2022/05/23 01:30:04;;;;;;;5.22;2.70;;;15.70;99.90;;;;;;5003035;28;20022;-80
2022/05/23 01:32:32;;;;;;;5.00;2.40;;;15.70;99.90;;;;;;4992481;28;20023;-80
2022/05/23 01:34:58;;;;;;;5.78;2.38;;;15.70;99.90;;;;;;5003618;28;20036;-80
2022/05/23 01:37:24;;;;;;;3.83;2.38;;;15.70;99.90;;;;;;5007593;28;20030;-79
2022/05/23 01:40:15;;;;;;;4.43;2.30;;;15.70;99.90;;;;;;4996090;28;20045;-80
2022/05/23 01:43:02;;;;;;;6.22;2.65;;;15.70;99.90;;;;;;4994092;28;20076;-79
2022/05/23 01:45:32;;;;;;;5.20;2.80;;;15.70;99.90;;;;;;4988461;28;20054;-79
2022/05/23 01:48:08;;;;;;;6.30;2.67;;;15.70;99.90;;;;;;5005956;28;20026;-80
2022/05/23 01:50:35;;;;;;;11.23;2.90;;;15.60;99.90;;;;;;5009003;28;20085;-79
2022/05/23 01:53:03;;;;;;;5.47;2.67;;;15.60;99.90;;;;;;5005015;28;20018;-79
2022/05/23 01:55:37;;;;;;;7.43;2.88;;;15.60;99.90;;;;;;4993036;28;20041;-80
2022/05/23 02:01:12;;;;;;;5.95;2.80;;;15.50;99.90;;;;;;4993427;28;20022;-78
2022/05/23 02:01:14;;;;;;;8.73;2.60;;;15.50;99.90;;;;;;5006061;28;20047;-80
2022/05/23 02:03:47;;;;;;;7.63;2.83;;;15.40;99.90;;;;;;5012235;28;20046;-80
2022/05/23 02:06:13;;;;;;;4.40;2.83;;;15.40;99.90;;;;;;5012215;28;20026;-78
2022/05/23 02:08:40;;;;;;;4.43;2.85;;;15.30;99.90;;;;;;4996230;28;20006;-81
2022/05/23 02:11:07;;;;;;;6.85;3.20;;;15.30;99.90;;;;;;5012684;28;20030;-78
2022/05/23 02:13:36;;;;;;;6.10;3.20;;;15.20;99.90;;;;;;5010241;28;20027;-78
2022/05/23 02:16:03;;;;;;;5.38;3.20;;;15.20;99.90;;;;;;4994168;28;20055;-80
2022/05/23 02:18:41;;;;;;;9.43;3.67;;;15.20;99.90;;;;;;4994302;28;20616;-80
2022/05/23 02:21:07;;;;;;;6.43;3.00;;;15.10;99.90;;;;;;5003979;28;20030;-79
2022/05/23 02:23:34;;;;;;;8.18;3.20;;;15.10;99.90;;;;;;5010209;28;20026;-79
2022/05/23 02:26:00;;;;;;;9.48;3.90;;;15.10;99.90;;;;;;5007928;28;20026;-80
2022/05/23 02:28:44;;;;;;;9.52;3.72;;;15.00;99.90;;;;;;5015217;28;20032;-79
2022/05/23 02:31:17;;;;;;;5.30;3.42;;;14.90;99.90;;;;;;5011007;28;20031;-80
2022/05/23 02:33:53;;;;;;;8.27;3.67;;;14.90;99.90;;;;;;5010187;28;20113;-82
2022/05/23 02:36:52;;;;;;;6.20;3.03;;;14.90;99.90;;;;;;5004690;28;20085;-79
2022/05/23 02:39:30;;;;;;;8.25;3.58;;;14.80;99.90;;;;;;5012792;28;20002;-80
2022/05/23 02:41:55;;;;;;;5.72;3.72;;;14.80;99.90;;;;;;5009409;28;20034;-82
2022/05/23 02:44:25;;;;;;;6.88;3.45;;;14.70;99.90;;;;;;5011767;28;20038;-78
2022/05/23 02:46:51;;;;;;;7.13;3.90;;;14.70;99.90;;;;;;5012364;28;20034;-78
2022/05/23 02:49:19;;;;;;;12.35;3.47;;;14.60;99.90;;;;;;5012444;28;20023;-79
2022/05/23 02:51:49;;;;;;;10.30;3.72;;;14.60;99.90;;;;;;5010460;28;20054;-81
2022/05/23 02:54:15;;;;;;;5.18;3.70;;;14.60;99.90;;;;;;5012871;28;20030;-80
2022/05/23 02:56:48;;;;;;;7.68;4.15;;;14.60;99.90;;;;;;4996487;28;20038;-78
2022/05/23 02:59:17;;;;;;;12.65;4.55;;;14.50;99.90;;;;;;5011555;28;20017;-78
2022/05/23 03:04:37;;;;;;;9.57;4.32;;;14.50;99.90;;;;;;5012742;28;20061;-81
2022/05/23 03:07:04;;;;;;;9.70;3.75;;;14.40;99.90;;;;;;5008462;28;20022;-81
2022/05/23 03:09:32;;;;;;;8.30;3.97;;;14.50;99.90;;;;;;5008569;28;20027;-80
2022/05/23 03:11:59;;;;;;;8.10;3.65;;;14.50;99.90;;;;;;5003038;28;20026;-81
2022/05/23 03:14:28;;;;;;;11.70;4.20;;;14.40;99.90;;;;;;5008380;28;20026;-79
2022/05/23 03:17:04;;;;;;;5.75;3.83;;;14.40;99.90;;;;;;4985494;28;20031;-80
2022/05/23 03:19:36;;;;;;;11.98;4.40;;;14.40;99.90;;;;;;4998879;28;20030;-79
2022/05/23 03:27:32;;;;;;;10.68;4.15;;;14.50;99.90;;;;;;5009415;28;20037;-78
2022/05/23 03:30:11;;;;;;;7.15;4.28;;;14.60;99.90;;;;;;5009147;28;20027;-78
2022/05/23 03:32:45;;;;;;;19.55;4.32;;;14.50;99.90;;;;;;4992622;28;20045;-77
2022/05/23 03:35:11;;;;;;;7.63;4.50;;;14.60;99.90;;;;;;5000241;28;20102;-78
2022/05/23 03:37:37;;;;;;;8.27;4.13;;;14.60;99.90;;;;;;4999663;28;20498;-80
2022/05/23 03:40:08;;;;;;;11.55;4.53;;;14.60;99.90;;;;;;5020846;23;20322;-78
2022/05/23 03:42:37;;;;;;;8.38;4.28;;;14.60;99.90;;;;;;4988141;28;20042;-80
2022/05/23 03:45:05;;;;;;;7.93;4.40;;;14.50;99.90;;;;;;4971339;28;20030;-82
2022/05/23 03:47:39;;;;;;;8.88;4.63;;;14.50;99.90;;;;;;4976806;28;20034;-79
2022/05/23 03:50:10;;;;;;;8.25;4.03;;;14.60;99.90;;;;;;4961305;28;20046;-81
2022/05/23 03:52:37;;;;;;;7.60;3.95;;;14.60;99.90;;;;;;4990606;28;20074;-80
2022/05/23 03:55:05;;;;;;;9.60;4.78;;;14.70;99.90;;;;;;4992663;28;20041;-81
2022/05/23 03:57:30;;;;;;;10.57;4.30;;;14.70;99.90;;;;;;4981738;28;20046;-78
2022/05/23 03:59:57;;;;;;;7.50;4.57;;;14.70;99.90;;;;;;4996552;28;20031;-82
2022/05/23 04:02:23;;;;;;;9.23;5.22;;;14.70;99.90;;;;;;4984953;28;20050;-81
2022/05/23 04:04:50;;;;;;;9.65;4.72;;;14.80;99.90;;;;;;4982484;28;20041;-80
2022/05/23 04:07:36;;;;;;;9.40;4.78;;;14.80;99.90;;;;;;4984535;28;20037;-80
2022/05/23 04:10:17;;;;;;;10.77;4.68;;;14.90;99.90;;;;;;4979878;28;20034;-77
2022/05/23 04:12:44;;;;;;;8.55;4.95;;;14.90;99.90;;;;;;4987043;28;20026;-78
2022/05/23 04:15:11;;;;;;;7.25;5.10;;;15.00;99.90;;;;;;4988434;28;20046;-78
2022/05/23 04:17:38;;;;;;;10.02;4.72;;;15.10;99.90;;;;;;4989291;28;20057;-77
2022/05/23 04:20:05;;;;;;;10.32;4.20;;;15.20;99.90;;;;;;4987615;28;20050;-77
2022/05/23 04:22:40;;;;;;;8.27;4.82;;;15.20;99.90;;;;;;4992745;28;20166;-79
2022/05/23 04:25:14;;;;;;;7.82;5.22;;;15.40;99.90;;;;;;4974089;28;20087;-81
2022/05/23 04:27:41;;;;;;;10.20;4.65;;;15.40;99.90;;;;;;4989037;28;20039;-79
2022/05/23 04:30:09;;;;;;;12.13;4.95;;;15.50;99.90;;;;;;4990618;28;20050;-80
2022/05/23 04:35:24;;;;;;;10.07;4.50;;;15.70;99.90;;;;;;4991468;28;20062;-80
2022/05/23 04:37:53;;;;;;;10.50;4.85;;;15.70;99.90;;;;;;4987521;28;20030;-78
2022/05/23 04:40:28;;;;;;;7.75;4.22;;;16.00;99.90;;;;;;4985847;28;20042;-80
2022/05/23 04:42:54;;;;;;;12.07;4.78;;;16.10;99.90;;;;;;4989876;28;20062;-80
2022/05/23 04:45:20;;;;;;;8.18;4.05;;;16.20;99.90;;;;;;4990150;28;20019;-79
2022/05/23 04:50:49;;;;;;;4.43;2.85;;;16.40;99.90;;;;;;5008690;28;20042;-79
2022/05/23 04:53:17;;;;;;;9.57;3.35;;;16.50;99.90;;;;;;4970263;28;20024;-79
2022/05/23 04:56:06;;;;;;;4.63;3.20;;;16.60;99.90;;;;;;4991564;28;20031;-79
2022/05/23 04:58:32;;;;;;;6.28;3.50;;;16.80;99.90;;;;;;4991206;28;20030;-79
2022/05/23 05:01:01;;;;;;;8.43;3.67;;;17.10;99.90;;;;;;4975705;28;20026;-81
2022/05/23 05:03:28;;;;;;;6.05;2.97;;;17.30;99.90;;;;;;4978331;28;20114;-80
2022/05/23 05:05:54;;;;;;;8.77;4.43;;;17.60;99.90;;;;;;4993797;28;20019;-77
2022/05/23 05:08:21;;;;;;;7.60;3.28;;;18.00;99.90;;;;;;4992013;28;20023;-78
2022/05/23 05:10:53;;;;;;;8.82;3.50;;;18.30;99.90;;;;;;4991520;28;20051;-79
2022/05/23 05:13:19;;;;;;;8.40;4.38;;;18.30;99.90;;;;;;4976778;28;20027;-80
2022/05/23 05:15:45;;;;;;;6.55;4.10;;;18.30;99.90;;;;;;4991757;28;20081;-79
2022/05/23 05:18:20;;;;;;;6.97;3.58;;;18.30;99.90;;;;;;4988226;28;20031;-83
2022/05/23 05:20:53;;;;;;;8.27;3.88;;;18.30;99.90;;;;;;4992027;28;20524;-79
2022/05/23 05:23:42;;;;;;;12.10;3.55;;;18.10;99.90;;;;;;4976091;28;20035;-80
2022/05/23 05:26:31;;;;;;;5.65;3.03;;;18.00;99.90;;;;;;4994562;28;20061;-79
2022/05/23 05:28:57;;;;;;;9.55;3.40;;;17.90;99.90;;;;;;4993693;28;20093;-78
2022/05/23 05:31:39;;;;;;;9.80;3.50;;;17.90;99.90;;;;;;4997375;28;20023;-80
2022/05/23 05:34:13;;;;;;;10.23;3.20;;;17.90;99.90;;;;;;5013710;28;20026;-79
2022/05/23 05:36:45;;;;;;;6.45;3.00;;;18.30;99.90;;;;;;5015743;28;20034;-80
2022/05/23 05:39:18;;;;;;;6.38;3.40;;;18.60;99.90;;;;;;4998655;28;20168;-80
2022/05/23 05:42:09;;;;;;;5.47;2.65;;;18.50;99.90;;;;;;4997512;28;20034;-81
2022/05/23 05:44:43;;;;;;;5.68;2.90;;;18.60;99.90;;;;;;4995286;28;20030;-83
2022/05/23 05:47:13;;;;;;;7.38;3.15;;;18.70;99.90;;;;;;4993613;28;20118;-81
2022/05/23 05:49:43;;;;;;;5.97;2.83;;;18.60;99.90;;;;;;4995369;28;20460;-81
2022/05/23 05:52:14;;;;;;;6.50;3.03;;;18.60;99.90;;;;;;4977510;28;20031;-81
2022/05/23 05:55:02;;;;;;;8.23;3.60;;;18.60;99.50;;;;;;4979443;28;20302;-81
2022/05/23 05:57:29;;;;;;;13.00;3.40;;;18.50;99.20;;;;;;5014443;28;20379;-79
2022/05/23 06:00:04;;;;;;;14.35;3.50;;;18.50;99.40;;;;;;4998191;28;20082;-81
2022/05/23 06:02:31;;;;;;;5.97;3.17;;;18.50;99.80;;;;;;4997195;28;20119;-82
2022/05/23 06:04:57;;;;;;;6.07;3.30;;;18.50;99.40;;;;;;4972378;28;20031;-81
2022/05/23 06:13:22;;;;;;;5.68;2.72;;;19.00;99.10;;;;;;4999346;28;20019;-81
2022/05/23 06:16:05;;;;;;;12.07;3.55;;;19.20;99.30;;;;;;5000357;28;20038;-78
2022/05/23 06:18:37;;;;;;;6.07;3.17;;;19.20;98.50;;;;;;4999064;28;20054;-81
2022/05/23 06:21:06;;;;;;;7.82;3.35;;;19.30;98.10;;;;;;4998955;28;20439;-79
2022/05/23 06:23:37;;;;;;;8.10;2.97;;;19.40;97.90;;;;;;5009130;28;20022;-81
2022/05/23 06:26:27;;;;;;;9.02;3.10;;;19.50;97.80;;;;;;5016807;28;20030;-80
2022/05/23 06:29:32;;;;;;;10.20;2.65;;;19.60;97.00;;;;;;4974470;28;20027;-82
2022/05/23 06:32:13;;;;;;;6.75;2.60;;;19.70;95.90;;;;;;4942302;29;20087;-81
2022/05/23 06:34:39;;;;;;;9.00;4.90;;;19.70;95.30;;;;;;4962350;29;20414;-81
2022/05/23 06:37:05;;;;;;;10.88;2.35;;;19.70;95.60;;;;;;4994150;28;20031;-82
2022/05/23 06:39:31;;;;;;;5.75;2.20;;;19.70;95.40;;;;;;4994018;28;20035;-81
2022/05/23 06:42:26;;;;;;;8.48;2.40;;;19.70;95.60;;;;;;4967257;28;20051;-79
2022/05/23 06:45:15;;;;;;;4.43;1.98;;;19.70;95.10;;;;;;4976098;28;20063;-82
2022/05/23 06:48:00;;;;;;;6.90;2.15;;;19.70;95.60;;;;;;4990981;28;20067;-79
2022/05/23 06:50:47;;;;;;;9.18;2.22;;;19.80;95.20;;;;;;4977745;29;20207;-81
2022/05/23 06:53:20;;;;;;;3.38;1.92;;;19.80;94.10;;;;;;4977033;29;20027;-82
2022/05/23 06:56:06;;;;;;;6.93;2.00;;;19.80;93.90;;;;;;4990899;28;20066;-80
2022/05/23 06:58:32;;;;;;;4.95;1.80;;;19.90;93.60;;;;;;4991967;28;20054;-80
2022/05/23 07:00:58;;;;;;;5.63;1.77;;;19.90;93.80;;;;;;4991086;28;20062;-80
2022/05/23 07:03:44;;;;;;;12.57;2.03;;;19.90;93.30;;;;;;4976405;28;20059;-78
2022/05/23 07:14:27;;;;;;;3.72;1.60;;;19.80;93.30;;;;;;4991658;28;20054;-79
2022/05/23 07:16:56;;;;;;;5.80;1.85;;;19.80;93.30;;;;;;4977180;28;20086;-80
2022/05/23 07:19:44;;;;;;;7.88;2.10;;;19.60;93.30;;;;;;4976208;29;20039;-81
2022/05/23 07:22:14;;;;;;;8.48;2.50;;;19.60;93.40;;;;;;4990095;28;20062;-79
2022/05/23 07:24:41;;;;;;;5.85;2.03;;;19.70;94.10;;;;;;4991984;28;20030;-82
2022/05/23 07:27:12;;;;;;;3.85;2.03;;;19.80;94.40;;;;;;4975880;29;20130;-80
2022/05/23 07:29:39;;;;;;;3.63;1.58;;;20.00;94.10;;;;;;4996057;28;20050;-80
2022/05/23 07:32:11;;;;;;;4.07;1.65;;;20.00;93.80;;;;;;4994486;28;20043;-79
2022/05/23 07:34:38;;;;;;;6.03;2.70;;;20.20;94.30;;;;;;4986239;28;20012;-79
2022/05/23 07:37:04;;;;;;;13.35;8.38;;;20.30;94.10;;;;;;4979338;28;20094;-81
2022/05/23 07:39:30;;;;;;;9.75;1.83;;;20.40;93.60;;;;;;4990872;28;20115;-82
2022/05/23 07:42:05;;;;;;;3.83;1.60;;;20.50;93.60;;;;;;4993082;28;20549;-79
2022/05/23 07:44:31;;;;;;;13.40;1.83;;;20.60;93.10;;;;;;4977659;28;20039;-79
2022/05/23 07:47:07;;;;;;;7.60;1.88;;;20.60;92.80;;;;;;4994753;28;20090;-78
2022/05/23 07:49:35;;;;;;;2.45;1.38;;;20.60;92.30;;;;;;4986634;28;20038;-81
2022/05/23 07:52:08;;;;;;;7.25;1.80;;;20.50;92.40;;;;;;4994907;28;20022;-80
2022/05/23 08:00:35;;;;;;;3.60;1.42;;;20.90;91.80;;;;;;4996137;28;20416;-82
2022/05/23 08:03:16;;;;;;;9.70;1.63;;;21.00;91.40;;;;;;4997724;28;20027;-80
2022/05/23 08:05:47;;;;;;;9.32;1.85;;;21.30;91.10;;;;;;4990977;28;20035;-80
2022/05/23 08:08:14;;;;;;;4.28;1.63;;;21.40;90.80;;;;;;4992353;28;20094;-80
2022/05/23 08:10:40;;;;;;;3.78;1.45;;;21.60;90.10;;;;;;4994806;28;20022;-80
2022/05/23 08:13:10;;;;;;;4.95;1.40;;;21.70;89.40;;;;;;4996666;28;20029;-78
2022/05/23 08:15:39;;;;;;;5.00;1.50;;;21.80;89.20;;;;;;4989326;28;20099;-78
2022/05/23 08:18:10;;;;;;;5.07;1.55;;;21.90;86.50;;;;;;4995478;28;20068;-79
2022/05/23 08:20:47;;;;;;;4.93;1.60;;;21.80;86.60;;;;;;4995024;28;20023;-79
2022/05/23 08:23:13;;;;;;;4.60;1.80;;;21.60;85.80;;;;;;5003882;28;20131;-80
2022/05/23 08:25:51;;;;;;;5.97;1.70;;;21.50;88.00;;;;;;4990903;28;20031;-79
2022/05/23 08:28:17;;;;;;;3.00;1.48;;;21.60;86.80;;;;;;4994947;28;20037;-77
2022/05/23 08:30:51;;;;;;;3.22;1.17;;;21.60;87.40;;;;;;4993194;28;20541;-79
2022/05/23 08:33:26;;;;;;;;;;;21.60;85.80;;;;;;4991304;28;20023;-78
2022/05/23 08:36:03;;;;;;;4.97;1.67;;;21.60;86.30;;;;;;4992493;28;19933;-80
2022/05/23 08:38:29;;;;;;;4.93;1.38;;;21.70;86.00;;;;;;4993084;28;20027;-77
2022/05/23 08:41:11;;;;;;;3.47;1.55;;;21.70;85.10;;;;;;4992506;28;20027;-77
2022/05/23 08:44:14;;;;;;;5.55;1.60;;;21.80;85.00;;;;;;4984011;28;20061;-79
2022/05/23 08:47:13;;;;;;;2.85;1.48;;;21.80;85.40;;;;;;5000246;28;20078;-78
2022/05/23 08:50:08;;;;;;;3.33;1.60;;;22.00;86.10;;;;;;4992404;28;20011;-80
2022/05/23 08:52:45;;;;;;;6.43;2.35;;;22.00;85.20;;;;;;4989172;28;20023;-78
2022/05/23 08:55:43;;;;;;;7.97;2.28;;;21.90;84.90;;;;;;5001588;28;20038;-82
2022/05/23 08:58:54;;;;;;;3.35;1.30;;;22.00;85.20;;;;;;4982215;28;20050;-82
2022/05/23 09:01:26;;;;;;;8.02;1.70;;;22.00;84.40;;;;;;4988118;28;20033;-80
2022/05/23 09:04:09;;;;;;;5.90;1.52;;;22.10;85.60;;;;;;4992779;28;20023;-78
2022/05/23 09:06:42;;;;;;;5.35;1.40;;;22.00;84.60;;;;;;4986699;28;20057;-79
2022/05/23 09:09:10;;;;;;;2.63;1.20;;;22.20;84.70;;;;;;4995001;28;20026;-80
2022/05/23 09:11:42;;;;;;;9.00;1.50;;;22.20;84.40;;;;;;4985620;28;20098;-82
2022/05/23 09:14:11;;;;;;;3.25;1.17;;;22.30;84.30;;;;;;4984830;28;20502;-82
2022/05/23 09:16:41;;;;;;;11.27;1.60;;;22.50;85.60;;;;;;4990267;28;20091;-82
2022/05/23 09:19:20;;;;;;;4.07;1.20;;;22.40;85.10;;;;;;4988572;28;20034;-77
2022/05/23 09:24:48;;;;;;;4.32;1.38;;;22.40;84.60;;;;;;4991155;28;20043;-78
2022/05/23 09:27:35;;;;;;;5.38;1.73;;;22.40;85.30;;;;;;4990359;28;20124;-78
2022/05/23 09:30:02;;;;;;;9.85;1.42;;;22.20;84.30;;;;;;4987943;28;20026;-79
2022/05/23 09:32:38;;;;;;;8.32;2.08;;;22.10;86.00;;;;;;4973569;28;20019;-80
2022/05/23 09:35:13;;;;;;;3.65;1.80;;;22.20;84.10;;;;;;4989886;28;20027;-79
2022/05/23 09:37:42;;;;;;;8.38;1.95;;;22.40;84.00;;;;;;4989154;28;20050;-78
2022/05/23 09:40:09;;;;;;;7.47;2.05;;;22.60;83.40;;;;;;5013507;23;20042;31
2022/05/23 09:48:20;;;;;;;5.40;1.30;;;23.50;83.70;;;;;;5006003;28;20027;-77
2022/05/23 09:50:54;;;;;;;6.65;1.90;;;24.10;82.60;;;;;;4999805;28;20026;-80
2022/05/23 09:53:33;;;;;;;7.07;1.50;;;24.90;80.80;;;;;;4994911;28;20033;-83
2022/05/23 09:56:39;;;;;;;10.48;1.70;;;25.50;78.70;;;;;;4973334;28;20030;-85
2022/05/23 09:59:36;;;;;;;3.45;2.13;;;26.10;77.40;;;;;;4915287;29;20043;-82
2022/05/23 10:02:31;;;;;;;6.45;2.13;;;25.90;75.90;;;;;;4907597;29;20032;-84
2022/05/23 10:04:58;;;;;;;7.35;1.40;;;26.30;75.90;;;;;;4986800;28;20130;-83
2022/05/23 10:07:38;;;;;;;4.85;2.05;;;26.50;75.60;;;;;;4999206;28;20068;-84
2022/05/23 10:10:25;;;;;;;6.57;2.08;;;27.20;74.30;;;;;;5004445;28;20030;-83
2022/05/23 10:13:30;;;;;;;5.72;2.15;;;27.80;72.70;;;;;;5005191;28;20030;-83
2022/05/23 10:16:01;;;;;;;5.35;2.50;;;27.80;71.60;;;;;;5009519;28;20049;-83
2022/05/23 10:18:31;;;;;;;9.07;1.80;;;27.90;70.90;;;;;;5009433;28;20030;-84
2022/05/23 10:20:59;;;;;;;6.78;1.60;;;28.10;71.10;;;;;;5009178;28;20030;-83
2022/05/23 10:23:35;;;;;;;7.95;1.60;;;28.90;69.70;;;;;;5011705;28;20050;-83
2022/05/23 10:26:24;;;;;;;7.90;1.60;;;30.20;67.60;;;;;;4995920;28;20030;-85
2022/05/23 10:29:20;;;;;;;4.07;1.73;;;30.90;65.00;;;;;;4993795;28;20042;-83
2022/05/23 10:32:09;;;;;;;10.15;2.33;;;31.10;63.90;;;;;;4989258;28;20048;-82
2022/05/23 10:34:42;;;;;;;10.82;1.92;;;31.80;62.80;;;;;;4995219;28;20054;-84
2022/05/23 10:37:26;;;;;;;1.85;1.40;;;31.60;61.90;;;;;;4997932;28;20028;-85
2022/05/23 10:43:03;;;;;;;8.85;2.85;;;28.80;61.60;;;;;;4998657;28;20089;-87
2022/05/23 10:45:54;;;;;;;5.43;1.90;;;27.60;63.60;;;;;;5005458;28;20065;-85
2022/05/23 10:48:44;;;;;;;3.72;1.40;;;27.60;64.30;;;;;;5007200;28;20425;-85
2022/05/23 10:51:31;;;;;;;4.30;1.50;;;27.80;63.40;;;;;;5008435;28;20565;-85
2022/05/23 10:54:09;;;;;;;8.45;1.92;;;27.80;64.00;;;;;;5010592;28;20094;-87
2022/05/23 10:57:02;;;;;;;4.38;1.88;;;27.80;63.10;;;;;;5009480;28;20026;-87
2022/05/23 10:59:32;;;;;;;4.73;1.53;;;28.50;63.40;;;;;;5010512;28;20106;-85
2022/05/23 11:02:19;;;;;;;5.70;2.22;;;29.90;62.30;;;;;;5010594;28;20034;-86
2022/05/23 11:05:09;;;;;;;5.20;1.70;;;30.90;60.00;;;;;;5009190;28;20038;-84
2022/05/23 11:08:02;;;;;;;4.68;1.60;;;31.20;59.40;;;;;;5008731;28;20328;-83
2022/05/23 11:10:41;;;;;;;5.68;1.67;;;31.80;59.40;;;;;;5001067;28;20111;-83
2022/05/23 11:13:28;;;;;;;5.53;1.75;;;32.60;58.40;;;;;;5001205;28;20030;-83
2022/05/23 11:16:13;;;;;;;4.60;1.48;;;33.30;56.90;;;;;;5003832;28;20090;-82
2022/05/23 11:18:57;;;;;;;;;;;33.40;56.20;;;;;;5003470;28;20034;-83
2022/05/23 11:21:55;;;;;;;7.38;1.60;;;33.70;55.60;;;;;;5005526;28;19913;-84
2022/05/23 11:24:39;;;;;;;6.25;2.00;;;33.30;55.40;;;;;;4999563;28;20031;-81
2022/05/23 11:35:47;;;;;;;4.50;1.55;;;31.80;55.60;;;;;;5002008;28;20038;-84
2022/05/23 11:38:17;;;;;;;4.07;1.60;;;32.30;55.50;;;;;;4986239;28;20035;-86
2022/05/23 11:40:51;;;;;;;5.47;1.73;;;32.20;55.10;;;;;;4972668;28;20077;-84
2022/05/23 11:43:18;;;;;;;7.65;1.80;;;33.20;54.80;;;;;;4976566;28;20019;-84
2022/05/23 11:48:45;;;;;;;4.07;1.48;;;32.90;54.80;;;;;;4973037;28;20031;-81
2022/05/23 11:51:24;;;;;;;4.97;1.58;;;31.60;55.00;;;;;;4971635;29;20410;-82
2022/05/23 11:53:56;;;;;;;5.15;1.30;;;30.30;57.00;;;;;;4979600;28;20047;-85
2022/05/23 11:56:37;;;;;;;7.13;1.90;;;30.40;57.50;;;;;;4991730;28;20117;-85
2022/05/23 11:59:24;;;;;;;4.30;1.63;;;31.10;56.50;;;;;;4991572;28;20050;-84
2022/05/23 12:02:08;;;;;;;9.43;1.80;;;30.90;56.50;;;;;;4988103;28;20047;-84
2022/05/23 12:04:49;;;;;;;7.13;1.70;;;30.60;57.30;;;;;;4989796;28;20034;-87
2022/05/23 12:07:37;;;;;;;5.07;1.90;;;30.50;57.30;;;;;;4989792;28;20037;-85
2022/05/23 12:10:21;;;;;;;9.52;2.00;;;29.80;57.90;;;;;;4989767;28;20050;-85
2022/05/23 12:12:48;;;;;;;5.00;1.75;;;28.90;58.90;;;;;;4970187;29;20034;-84
2022/05/23 12:15:44;;;;;;;11.75;2.10;;;28.80;59.50;;;;;;4970914;28;20027;-85
2022/05/23 12:18:29;;;;;;;10.75;2.05;;;28.60;60.00;;;;;;4975271;28;20046;-84
2022/05/23 12:20:59;;;;;;;10.80;2.33;;;28.00;60.70;;;;;;4976182;28;20042;-84
2022/05/23 12:23:38;;;;;;;3.55;1.67;;;27.40;61.20;;;;;;4974645;28;20020;-84
2022/05/23 12:26:10;;;;;;;6.70;1.90;;;27.10;62.30;;;;;;4972520;28;20058;-83
2022/05/23 12:28:48;;;;;;;3.70;2.00;;;26.70;62.70;;;;;;4972238;28;20086;-85
2022/05/23 12:31:16;;;;;;;7.88;2.10;;;26.50;63.20;;;;;;4971518;29;20444;-86
2022/05/23 12:33:48;;;;;;;7.07;3.75;;;26.30;63.50;;;;;;4971001;28;20043;-85
2022/05/23 12:36:20;;;;;;;5.68;2.35;;;25.70;63.90;;;;;;4971516;28;20023;-85
2022/05/23 12:38:57;;;;;;;5.50;1.90;;;25.50;64.50;;;;;;4977848;28;20094;-85
2022/05/23 12:41:32;;;;;;;4.70;1.77;;;25.80;64.50;;;;;;4986173;28;20031;-81
2022/05/23 12:44:16;;;;;;;3.90;1.60;;;26.50;63.80;;;;;;4983544;28;20038;-83
2022/05/23 12:47:36;;;;;;;5.10;1.80;;;27.00;63.40;;;;;;4981311;28;20133;-85
2022/05/23 12:50:18;;;;;;;8.38;2.00;;;27.40;62.90;;;;;;4998561;28;20054;-86
2022/05/23 12:52:59;;;;;;;6.78;2.35;;;27.30;62.80;;;;;;5000291;28;20018;-84
2022/05/23 12:55:51;;;;;;;4.97;1.90;;;27.60;62.70;;;;;;5000887;28;20030;-83
2022/05/23 12:58:27;;;;;;;9.95;2.13;;;27.80;62.10;;;;;;4999741;28;20087;-82
2022/05/23 13:01:07;;;;;;;6.68;1.70;;;27.60;61.60;;;;;;5005493;28;20018;-85
2022/05/23 13:03:53;;;;;;;7.05;2.13;;;27.30;61.90;;;;;;5001994;28;20093;-84
2022/05/23 13:06:37;;;;;;;3.30;1.77;;;26.90;62.40;;;;;;4997417;28;20035;-86
2022/05/23 13:09:15;;;;;;;7.13;1.85;;;26.30;63.30;;;;;;4989622;28;20049;-86
2022/05/23 13:11:45;;;;;;;10.32;2.53;;;25.80;63.90;;;;;;4991654;28;20030;-85
2022/05/23 13:14:11;;;;;;;10.32;3.83;;;25.50;64.90;;;;;;4995051;28;20038;-84
2022/05/23 13:16:54;;;;;;;13.18;2.40;;;25.40;65.30;;;;;;4997206;28;20022;-84
2022/05/23 13:22:08;;;;;;;;;;;25.80;66.20;;;;;;4990797;28;20446;-85
2022/05/23 13:24:55;;;;;;;6.35;2.33;;;26.80;64.20;;;;;;4994779;28;20380;-82
2022/05/23 13:27:27;;;;;;;6.85;2.55;;;27.20;63.90;;;;;;4993867;28;20081;-83
2022/05/23 13:29:55;;;;;;;5.93;2.20;;;28.40;63.00;;;;;;4998652;28;20054;-84
2022/05/23 13:32:23;;;;;;;9.55;2.33;;;29.70;61.50;;;;;;4991547;28;20023;-86
2022/05/23 13:34:50;;;;;;;4.38;1.83;;;30.90;59.90;;;;;;4984440;28;20023;-82
2022/05/23 13:37:25;;;;;;;4.63;1.98;;;32.00;58.70;;;;;;4982064;28;20034;-83
2022/05/23 13:39:51;;;;;;;10.82;2.03;;;32.20;58.10;;;;;;4973398;28;20031;-82
2022/05/23 13:42:22;;;;;;;9.52;2.72;;;32.30;57.90;;;;;;4980198;28;20027;-83
2022/05/23 13:44:48;;;;;;;4.13;1.83;;;31.90;57.50;;;;;;4976932;28;20027;-85
2022/05/23 13:47:21;;;;;;;8.25;2.30;;;31.60;58.80;;;;;;4984559;28;20117;-85
2022/05/23 13:49:58;;;;;;;5.28;2.17;;;31.50;58.90;;;;;;4972338;28;20046;-84
2022/05/23 13:52:33;;;;;;;9.38;2.20;;;31.30;58.90;;;;;;4998351;28;20449;-85
2022/05/23 13:55:11;;;;;;;5.72;2.00;;;31.30;59.00;;;;;;4999240;28;20247;-85
2022/05/23 13:57:47;;;;;;;7.57;2.17;;;31.60;58.40;;;;;;5006478;28;20027;-84
2022/05/23 14:00:37;;;;;;;4.18;1.90;;;32.00;57.70;;;;;;5008567;28;20033;-82
2022/05/23 14:03:31;;;;;;;3.88;1.75;;;31.50;58.00;;;;;;5008893;28;20033;-82
2022/05/23 14:05:59;;;;;;;5.63;2.30;;;31.20;58.20;;;;;;4986958;28;20039;-83
2022/05/23 14:08:38;;;;;;;5.18;2.10;;;30.60;58.50;;;;;;4999652;28;20363;-82
2022/05/23 14:11:26;;;;;;;8.18;3.17;;;30.60;58.90;;;;;;4993744;28;20022;-84
2022/05/23 14:14:00;;;;;;;5.03;2.90;;;30.70;58.50;;;;;;5000633;28;20047;-83
2022/05/23 14:16:26;;;;;;;6.13;2.15;;;30.90;58.80;;;;;;4999733;28;20034;-82
2022/05/23 14:19:19;;;;;;;10.60;2.10;;;31.10;58.20;;;;;;4997245;28;20086;-82
2022/05/23 14:21:45;;;;;;;8.48;2.50;;;31.50;58.20;;;;;;5001842;28;20022;-83
2022/05/23 14:24:27;;;;;;;4.15;1.90;;;31.40;57.70;;;;;;4999457;28;20045;-86
2022/05/23 14:27:11;;;;;;;7.70;2.25;;;31.20;58.10;;;;;;4997552;28;20046;-85
2022/05/23 14:29:37;;;;;;;8.88;2.20;;;31.70;58.20;;;;;;4989208;28;20046;-84
2022/05/23 14:32:11;;;;;;;4.07;2.05;;;31.50;57.70;;;;;;4995908;28;20027;-87